APG320 RPVM-RPVE
Flight info
| Callsign | APG320 |
|---|---|
| Flight time | 0h 56m |
| Altitude | 24000 |
| Route | KEVAN4N KEVAN TR2 BCD TR8 KLO KLO7A |
| Aircraft | A20N/M-SDE2E3FGHIRWXY/LB1 |
Departure
| Time | 2026-04-22 16:28 |
|---|---|
| Airport | Mactan Cebu International Airport (RPVM) |
Arrival
| Time | 2026-04-22 17:24 |
|---|---|
| Airport | Godofredo P. Ramos Airport (RPVE) |
| Time | Latitude | Longitude | Altitude | Speed | Heading |
|---|---|---|---|---|---|
| 2026-04-22 15:55 | 10.31506 | 123.97918 | 37 ft | 0 kts | 315° |
| 2026-04-22 16:16 | 10.31504 | 123.97920 | 37 ft | 2 kts | 315° |
| 2026-04-22 16:16 | 10.31480 | 123.97946 | 37 ft | 4 kts | 309° |
| 2026-04-22 16:17 | 10.31469 | 123.97960 | 36 ft | 4 kts | 302° |
| 2026-04-22 16:17 | 10.31459 | 123.97984 | 33 ft | 4 kts | 265° |
| 2026-04-22 16:17 | 10.31462 | 123.97996 | 34 ft | 0 kts | 225° |
| 2026-04-22 16:22 | 10.31348 | 123.97899 | 37 ft | 10 kts | 192° |
| 2026-04-22 16:22 | 10.31294 | 123.97928 | 37 ft | 8 kts | 141° |
| 2026-04-22 16:22 | 10.31251 | 123.97970 | 37 ft | 10 kts | 134° |
| 2026-04-22 16:23 | 10.31163 | 123.97944 | 35 ft | 7 kts | 227° |
| 2026-04-22 16:23 | 10.31122 | 123.97907 | 37 ft | 9 kts | 220° |
| 2026-04-22 16:23 | 10.31066 | 123.97849 | 35 ft | 18 kts | 225° |
| 2026-04-22 16:24 | 10.30947 | 123.97729 | 37 ft | 30 kts | 224° |
| 2026-04-22 16:24 | 10.30590 | 123.97371 | 35 ft | 38 kts | 224° |
| 2026-04-22 16:24 | 10.30403 | 123.97184 | 37 ft | 37 kts | 225° |
| 2026-04-22 16:25 | 10.30219 | 123.96999 | 36 ft | 38 kts | 225° |
| 2026-04-22 16:25 | 10.29916 | 123.96709 | 37 ft | 16 kts | 189° |
| 2026-04-22 16:25 | 10.29831 | 123.96758 | 37 ft | 14 kts | 136° |
| 2026-04-22 16:26 | 10.29768 | 123.96821 | 36 ft | 12 kts | 135° |
| 2026-04-22 16:26 | 10.29722 | 123.96884 | 36 ft | 11 kts | 102° |
| 2026-04-22 16:26 | 10.29757 | 123.96941 | 36 ft | 10 kts | 46° |
| 2026-04-22 16:26 | 10.29778 | 123.96962 | 36 ft | 0 kts | 45° |
| 2026-04-22 16:27 | 10.29778 | 123.96963 | 36 ft | 2 kts | 45° |
| 2026-04-22 16:27 | 10.29851 | 123.97035 | 33 ft | 41 kts | 44° |
| 2026-04-22 16:27 | 10.30232 | 123.97417 | 38 ft | 109 kts | 45° |
| 2026-04-22 16:27 | 10.30904 | 123.98087 | 42 ft | 159 kts | 44° |
| 2026-04-22 16:28 | 10.31710 | 123.98855 | 698 ft | 155 kts | 41° |
| 2026-04-22 16:28 | 10.32521 | 123.99581 | 1349 ft | 160 kts | 40° |
| 2026-04-22 16:28 | 10.33401 | 124.00323 | 1834 ft | 169 kts | 40° |
| 2026-04-22 16:28 | 10.34349 | 124.01126 | 2260 ft | 188 kts | 45° |
| 2026-04-22 16:29 | 10.35316 | 124.02135 | 2635 ft | 211 kts | 44° |
| 2026-04-22 16:29 | 10.36694 | 124.02827 | 3038 ft | 240 kts | 8° |
| 2026-04-22 16:29 | 10.38406 | 124.02473 | 3526 ft | 267 kts | 334° |
| 2026-04-22 16:29 | 10.39968 | 124.01393 | 4339 ft | 276 kts | 322° |
| 2026-04-22 16:30 | 10.40937 | 124.00547 | 4907 ft | 279 kts | 319° |
| 2026-04-22 16:30 | 10.42888 | 123.98766 | 6094 ft | 284 kts | 320° |
| 2026-04-22 16:30 | 10.44398 | 123.97459 | 6927 ft | 287 kts | 321° |
| 2026-04-22 16:30 | 10.45966 | 123.96187 | 7748 ft | 290 kts | 323° |
| 2026-04-22 16:31 | 10.47585 | 123.94940 | 8586 ft | 293 kts | 323° |
| 2026-04-22 16:31 | 10.49237 | 123.93713 | 9441 ft | 295 kts | 324° |
| 2026-04-22 16:31 | 10.50914 | 123.92490 | 10208 ft | 300 kts | 324° |
| 2026-04-22 16:31 | 10.52675 | 123.91214 | 10478 ft | 323 kts | 324° |
| 2026-04-22 16:32 | 10.54570 | 123.89837 | 10669 ft | 346 kts | 324° |
| 2026-04-22 16:32 | 10.56477 | 123.88228 | 10815 ft | 367 kts | 313° |
| 2026-04-22 16:32 | 10.58079 | 123.86180 | 10968 ft | 373 kts | 301° |
| 2026-04-22 16:32 | 10.59223 | 123.83812 | 10996 ft | 374 kts | 289° |
| 2026-04-22 16:33 | 10.59836 | 123.81251 | 10998 ft | 373 kts | 277° |
| 2026-04-22 16:33 | 10.60175 | 123.78638 | 10995 ft | 373 kts | 277° |
| 2026-04-22 16:33 | 10.60525 | 123.76027 | 10994 ft | 373 kts | 277° |
| 2026-04-22 16:33 | 10.60881 | 123.73411 | 10992 ft | 373 kts | 277° |
| 2026-04-22 16:34 | 10.61237 | 123.70804 | 10991 ft | 373 kts | 277° |
| 2026-04-22 16:34 | 10.61594 | 123.68191 | 10996 ft | 373 kts | 277° |
| 2026-04-22 16:34 | 10.61949 | 123.65584 | 10993 ft | 373 kts | 277° |
| 2026-04-22 16:34 | 10.62300 | 123.63005 | 10996 ft | 373 kts | 277° |
| 2026-04-22 16:35 | 10.62656 | 123.60396 | 10996 ft | 373 kts | 277° |
| 2026-04-22 16:35 | 10.63008 | 123.57785 | 10992 ft | 373 kts | 277° |
| 2026-04-22 16:35 | 10.63362 | 123.55169 | 10992 ft | 373 kts | 277° |
| 2026-04-22 16:35 | 10.63715 | 123.52555 | 10998 ft | 373 kts | 277° |
| 2026-04-22 16:36 | 10.64067 | 123.49925 | 11308 ft | 378 kts | 277° |
| 2026-04-22 16:36 | 10.64425 | 123.47275 | 12061 ft | 379 kts | 277° |
| 2026-04-22 16:36 | 10.64786 | 123.44612 | 12735 ft | 382 kts | 277° |
| 2026-04-22 16:36 | 10.65149 | 123.41928 | 13367 ft | 386 kts | 277° |
| 2026-04-22 16:37 | 10.65516 | 123.39210 | 13953 ft | 389 kts | 277° |
| 2026-04-22 16:37 | 10.65884 | 123.36475 | 14488 ft | 392 kts | 277° |
| 2026-04-22 16:37 | 10.66256 | 123.33716 | 14993 ft | 395 kts | 277° |
| 2026-04-22 16:37 | 10.66632 | 123.30937 | 15501 ft | 399 kts | 277° |
| 2026-04-22 16:38 | 10.67012 | 123.28128 | 15995 ft | 402 kts | 277° |
| 2026-04-22 16:38 | 10.67392 | 123.25308 | 16480 ft | 405 kts | 277° |
| 2026-04-22 16:38 | 10.67994 | 123.22499 | 16935 ft | 409 kts | 287° |
| 2026-04-22 16:38 | 10.69079 | 123.19814 | 17392 ft | 413 kts | 295° |
| 2026-04-22 16:39 | 10.70341 | 123.17176 | 17866 ft | 416 kts | 295° |
| 2026-04-22 16:39 | 10.71610 | 123.14518 | 18292 ft | 419 kts | 295° |
| 2026-04-22 16:39 | 10.72884 | 123.11840 | 18670 ft | 422 kts | 295° |
| 2026-04-22 16:39 | 10.74169 | 123.09143 | 19042 ft | 425 kts | 295° |
| 2026-04-22 16:40 | 10.75463 | 123.06427 | 19418 ft | 428 kts | 295° |
| 2026-04-22 16:40 | 10.76948 | 123.03796 | 19781 ft | 432 kts | 304° |
| 2026-04-22 16:40 | 10.81204 | 122.99456 | 20509 ft | 439 kts | 324° |
| 2026-04-22 16:41 | 10.83731 | 122.97705 | 20869 ft | 441 kts | 325° |
| 2026-04-22 16:41 | 10.86273 | 122.95941 | 21241 ft | 444 kts | 325° |
| 2026-04-22 16:41 | 10.88829 | 122.94161 | 21603 ft | 446 kts | 325° |
| 2026-04-22 16:41 | 10.91398 | 122.92367 | 21958 ft | 449 kts | 325° |
| 2026-04-22 16:42 | 10.93984 | 122.90561 | 22304 ft | 452 kts | 325° |
| 2026-04-22 16:42 | 10.96581 | 122.88743 | 22649 ft | 454 kts | 325° |
| 2026-04-22 16:42 | 10.99190 | 122.86913 | 22983 ft | 457 kts | 324° |
| 2026-04-22 16:42 | 11.01810 | 122.85074 | 23300 ft | 459 kts | 325° |
| 2026-04-22 16:43 | 11.04445 | 122.83223 | 23602 ft | 461 kts | 325° |
| 2026-04-22 16:43 | 11.07094 | 122.81365 | 23827 ft | 463 kts | 325° |
| 2026-04-22 16:43 | 11.09756 | 122.79500 | 23895 ft | 467 kts | 325° |
| 2026-04-22 16:43 | 11.12460 | 122.77609 | 23908 ft | 476 kts | 325° |
| 2026-04-22 16:44 | 11.15171 | 122.75713 | 23907 ft | 481 kts | 325° |
| 2026-04-22 16:44 | 11.17968 | 122.73755 | 23907 ft | 482 kts | 325° |
| 2026-04-22 16:44 | 11.20732 | 122.71817 | 23909 ft | 482 kts | 325° |
| 2026-04-22 16:44 | 11.23456 | 122.69904 | 23907 ft | 482 kts | 325° |
| 2026-04-22 16:45 | 11.26218 | 122.67965 | 23905 ft | 482 kts | 325° |
| 2026-04-22 16:45 | 11.28978 | 122.66024 | 23914 ft | 482 kts | 324° |
| 2026-04-22 16:45 | 11.31736 | 122.64085 | 23912 ft | 482 kts | 325° |
| 2026-04-22 16:45 | 11.34501 | 122.62141 | 23913 ft | 482 kts | 324° |
| 2026-04-22 16:46 | 11.37264 | 122.60200 | 23910 ft | 482 kts | 324° |
| 2026-04-22 16:46 | 11.40023 | 122.58262 | 23910 ft | 482 kts | 324° |
| 2026-04-22 16:46 | 11.42786 | 122.56322 | 23908 ft | 482 kts | 324° |
| 2026-04-22 16:46 | 11.45548 | 122.54384 | 23908 ft | 482 kts | 324° |
| 2026-04-22 16:47 | 11.48309 | 122.52442 | 23906 ft | 482 kts | 324° |
| 2026-04-22 16:47 | 11.51070 | 122.50500 | 23903 ft | 482 kts | 324° |
| 2026-04-22 16:47 | 11.52937 | 122.49186 | 23904 ft | 482 kts | 324° |
| 2026-04-22 16:47 | 11.56593 | 122.46612 | 23903 ft | 483 kts | 324° |
| 2026-04-22 16:48 | 11.59350 | 122.44673 | 23310 ft | 476 kts | 324° |
| 2026-04-22 16:48 | 11.62050 | 122.42776 | 22043 ft | 465 kts | 324° |
| 2026-04-22 16:48 | 11.64687 | 122.40925 | 20952 ft | 454 kts | 324° |
| 2026-04-22 16:48 | 11.67209 | 122.39067 | 20125 ft | 443 kts | 319° |
| 2026-04-22 16:49 | 11.69432 | 122.36920 | 19308 ft | 437 kts | 311° |
| 2026-04-22 16:49 | 11.71348 | 122.34534 | 18512 ft | 434 kts | 308° |
| 2026-04-22 16:49 | 11.73228 | 122.32122 | 17642 ft | 434 kts | 308° |
| 2026-04-22 16:49 | 11.75108 | 122.29722 | 16869 ft | 431 kts | 308° |
| 2026-04-22 16:50 | 11.76975 | 122.27349 | 16114 ft | 428 kts | 308° |
| 2026-04-22 16:50 | 11.78833 | 122.24992 | 15381 ft | 424 kts | 308° |
| 2026-04-22 16:50 | 11.80679 | 122.22651 | 14677 ft | 421 kts | 308° |
| 2026-04-22 16:50 | 11.82503 | 122.20331 | 13981 ft | 417 kts | 308° |
| 2026-04-22 16:51 | 11.84308 | 122.18028 | 13262 ft | 414 kts | 308° |
| 2026-04-22 16:51 | 11.86096 | 122.15748 | 12589 ft | 408 kts | 308° |
| 2026-04-22 16:51 | 11.86798 | 122.14852 | 12332 ft | 405 kts | 308° |
| 2026-04-22 16:51 | 11.88548 | 122.12622 | 11680 ft | 400 kts | 309° |
| 2026-04-22 16:52 | 11.90272 | 122.10425 | 11211 ft | 390 kts | 309° |
| 2026-04-22 16:52 | 11.91925 | 122.08314 | 11088 ft | 372 kts | 309° |
| 2026-04-22 16:52 | 11.93503 | 122.06298 | 10968 ft | 354 kts | 309° |
| 2026-04-22 16:52 | 11.95012 | 122.04375 | 10849 ft | 339 kts | 309° |
| 2026-04-22 16:53 | 11.96458 | 122.02534 | 10731 ft | 326 kts | 309° |
| 2026-04-22 16:53 | 11.97844 | 122.00763 | 10617 ft | 313 kts | 309° |
| 2026-04-22 16:53 | 11.99184 | 121.99051 | 10402 ft | 305 kts | 309° |
| 2026-04-22 16:53 | 12.00499 | 121.97374 | 10320 ft | 301 kts | 309° |
| 2026-04-22 16:54 | 12.01806 | 121.95701 | 10250 ft | 301 kts | 307° |
| 2026-04-22 16:54 | 12.02793 | 121.93827 | 10126 ft | 301 kts | 287° |
| 2026-04-22 16:54 | 12.03046 | 121.91720 | 9996 ft | 300 kts | 265° |
| 2026-04-22 16:54 | 12.02552 | 121.89646 | 9585 ft | 303 kts | 244° |
| 2026-04-22 16:55 | 12.01415 | 121.87834 | 9127 ft | 304 kts | 233° |
| 2026-04-22 16:55 | 12.00192 | 121.86079 | 8713 ft | 303 kts | 234° |
| 2026-04-22 16:55 | 11.98976 | 121.84323 | 8301 ft | 302 kts | 234° |
| 2026-04-22 16:55 | 11.97765 | 121.82568 | 7892 ft | 301 kts | 234° |
| 2026-04-22 16:56 | 11.96559 | 121.80821 | 7521 ft | 299 kts | 234° |
| 2026-04-22 16:56 | 11.95358 | 121.79079 | 7047 ft | 299 kts | 234° |
| 2026-04-22 16:56 | 11.94180 | 121.77367 | 6599 ft | 289 kts | 234° |
| 2026-04-22 16:56 | 11.93041 | 121.75715 | 6189 ft | 279 kts | 232° |
| 2026-04-22 16:57 | 11.91671 | 121.74407 | 5789 ft | 264 kts | 204° |
| 2026-04-22 16:57 | 11.89967 | 121.73955 | 5420 ft | 247 kts | 175° |
| 2026-04-22 16:57 | 11.88363 | 121.74340 | 5049 ft | 231 kts | 149° |
| 2026-04-22 16:57 | 11.86949 | 121.75071 | 4710 ft | 226 kts | 149° |
| 2026-04-22 16:58 | 11.86024 | 121.75551 | 4469 ft | 225 kts | 148° |
| 2026-04-22 16:58 | 11.84344 | 121.76722 | 4031 ft | 212 kts | 118° |
| 2026-04-22 16:58 | 11.83965 | 121.78105 | 3719 ft | 200 kts | 83° |
| 2026-04-22 16:58 | 11.84416 | 121.79390 | 3444 ft | 193 kts | 63° |
| 2026-04-22 16:59 | 11.85028 | 121.80584 | 3178 ft | 187 kts | 64° |
| 2026-04-22 16:59 | 11.85618 | 121.81750 | 2917 ft | 183 kts | 64° |
| 2026-04-22 16:59 | 11.86197 | 121.82902 | 2668 ft | 183 kts | 64° |
| 2026-04-22 16:59 | 11.86780 | 121.84066 | 2398 ft | 185 kts | 65° |
| 2026-04-22 17:00 | 11.87363 | 121.85230 | 2266 ft | 181 kts | 64° |
| 2026-04-22 17:00 | 11.88302 | 121.87106 | 2039 ft | 167 kts | 64° |
| 2026-04-22 17:00 | 11.88803 | 121.88103 | 1925 ft | 150 kts | 64° |
| 2026-04-22 17:01 | 11.89255 | 121.89007 | 1657 ft | 141 kts | 63° |
| 2026-04-22 17:01 | 11.89702 | 121.89897 | 1318 ft | 141 kts | 64° |
| 2026-04-22 17:01 | 11.90150 | 121.90789 | 1049 ft | 142 kts | 63° |
| 2026-04-22 17:01 | 11.90581 | 121.91645 | 879 ft | 131 kts | 63° |
| 2026-04-22 17:02 | 11.90995 | 121.92473 | 512 ft | 131 kts | 63° |
| 2026-04-22 17:02 | 11.91383 | 121.93311 | 411 ft | 135 kts | 63° |
| 2026-04-22 17:02 | 11.91831 | 121.94152 | 280 ft | 136 kts | 60° |
| 2026-04-22 17:02 | 11.92257 | 121.95004 | 83 ft | 136 kts | 62° |
| 2026-04-22 17:03 | 11.92685 | 121.95852 | 89 ft | 139 kts | 62° |
| 2026-04-22 17:03 | 11.93168 | 121.96785 | 586 ft | 160 kts | 64° |
| 2026-04-22 17:03 | 11.93757 | 121.97908 | 884 ft | 206 kts | 63° |
| 2026-04-22 17:03 | 11.94497 | 121.99332 | 863 ft | 229 kts | 63° |
| 2026-04-22 17:04 | 11.95220 | 122.00707 | 870 ft | 211 kts | 62° |
| 2026-04-22 17:04 | 11.95910 | 122.02012 | 877 ft | 208 kts | 62° |
| 2026-04-22 17:04 | 11.96612 | 122.03311 | 884 ft | 208 kts | 62° |
| 2026-04-22 17:04 | 11.97278 | 122.04594 | 885 ft | 204 kts | 68° |
| 2026-04-22 17:05 | 11.97504 | 122.06020 | 880 ft | 206 kts | 98° |
| 2026-04-22 17:05 | 11.97289 | 122.07451 | 878 ft | 203 kts | 88° |
| 2026-04-22 17:05 | 11.97817 | 122.08746 | 880 ft | 204 kts | 45° |
| 2026-04-22 17:05 | 11.99055 | 122.09470 | 879 ft | 210 kts | 18° |
| 2026-04-22 17:06 | 12.00518 | 122.09556 | 881 ft | 215 kts | 352° |
| 2026-04-22 17:06 | 12.01884 | 122.08919 | 880 ft | 222 kts | 322° |
| 2026-04-22 17:06 | 12.02743 | 122.07605 | 881 ft | 228 kts | 287° |
| 2026-04-22 17:06 | 12.02846 | 122.05996 | 883 ft | 229 kts | 269° |
| 2026-04-22 17:07 | 12.02910 | 122.04373 | 887 ft | 229 kts | 275° |
| 2026-04-22 17:07 | 12.03023 | 122.02747 | 885 ft | 229 kts | 275° |
| 2026-04-22 17:07 | 12.03145 | 122.01134 | 882 ft | 227 kts | 275° |
| 2026-04-22 17:07 | 12.03253 | 121.99511 | 887 ft | 229 kts | 275° |
| 2026-04-22 17:08 | 12.03302 | 121.97905 | 879 ft | 224 kts | 262° |
| 2026-04-22 17:08 | 12.02793 | 121.96418 | 883 ft | 224 kts | 234° |
| 2026-04-22 17:08 | 12.01740 | 121.95253 | 880 ft | 224 kts | 222° |
| 2026-04-22 17:08 | 12.00613 | 121.94142 | 884 ft | 225 kts | 223° |
| 2026-04-22 17:09 | 11.99474 | 121.93023 | 1102 ft | 230 kts | 221° |
| 2026-04-22 17:09 | 11.98330 | 121.91900 | 2002 ft | 228 kts | 221° |
| 2026-04-22 17:09 | 11.97186 | 121.90776 | 2159 ft | 230 kts | 221° |
| 2026-04-22 17:09 | 11.96026 | 121.89633 | 2181 ft | 232 kts | 221° |
| 2026-04-22 17:10 | 11.94925 | 121.88432 | 2184 ft | 233 kts | 232° |
| 2026-04-22 17:10 | 11.94046 | 121.87030 | 2180 ft | 235 kts | 238° |
| 2026-04-22 17:10 | 11.93213 | 121.85593 | 2184 ft | 235 kts | 238° |
| 2026-04-22 17:10 | 11.92384 | 121.84154 | 2181 ft | 236 kts | 238° |
| 2026-04-22 17:11 | 11.91556 | 121.82716 | 2179 ft | 235 kts | 238° |
| 2026-04-22 17:11 | 11.90727 | 121.81276 | 2181 ft | 235 kts | 238° |
| 2026-04-22 17:11 | 11.89828 | 121.79891 | 2177 ft | 233 kts | 221° |
| 2026-04-22 17:11 | 11.88455 | 121.79117 | 2180 ft | 224 kts | 185° |
| 2026-04-22 17:12 | 11.86954 | 121.79228 | 2184 ft | 213 kts | 153° |
| 2026-04-22 17:12 | 11.85785 | 121.80076 | 2183 ft | 204 kts | 123° |
| 2026-04-22 17:12 | 11.85202 | 121.81345 | 2176 ft | 192 kts | 97° |
| 2026-04-22 17:12 | 11.85263 | 121.82633 | 2180 ft | 183 kts | 72° |
| 2026-04-22 17:13 | 11.85881 | 121.83753 | 2183 ft | 183 kts | 48° |
| 2026-04-22 17:13 | 11.86873 | 121.84572 | 2174 ft | 183 kts | 43° |
| 2026-04-22 17:13 | 11.87650 | 121.85559 | 1841 ft | 178 kts | 65° |
| 2026-04-22 17:13 | 11.88115 | 121.86739 | 1431 ft | 180 kts | 63° |
| 2026-04-22 17:14 | 11.88732 | 121.87834 | 1203 ft | 173 kts | 57° |
| 2026-04-22 17:14 | 11.89363 | 121.88792 | 1137 ft | 153 kts | 55° |
| 2026-04-22 17:14 | 11.89873 | 121.89664 | 1074 ft | 132 kts | 63° |
| 2026-04-22 17:14 | 11.90174 | 121.90508 | 900 ft | 124 kts | 73° |
| 2026-04-22 17:15 | 11.90320 | 121.91077 | 762 ft | 120 kts | 75° |
| 2026-04-22 17:15 | 11.90654 | 121.92131 | 493 ft | 142 kts | 59° |
| 2026-04-22 17:15 | 11.91138 | 121.93027 | 991 ft | 159 kts | 57° |
| 2026-04-22 17:15 | 11.91802 | 121.94096 | 787 ft | 172 kts | 59° |
| 2026-04-22 17:16 | 11.92453 | 121.94862 | 1019 ft | 127 kts | 25° |
| 2026-04-22 17:16 | 11.93338 | 121.94712 | 1190 ft | 147 kts | 331° |
| 2026-04-22 17:16 | 11.94283 | 121.94119 | 1312 ft | 172 kts | 334° |
| 2026-04-22 17:16 | 11.95372 | 121.93427 | 1208 ft | 203 kts | 322° |
| 2026-04-22 17:17 | 11.96094 | 121.92160 | 1489 ft | 202 kts | 286° |
| 2026-04-22 17:17 | 11.96187 | 121.90665 | 1748 ft | 227 kts | 265° |
| 2026-04-22 17:17 | 11.95942 | 121.88960 | 1898 ft | 259 kts | 254° |
| 2026-04-22 17:17 | 11.95364 | 121.87280 | 2066 ft | 239 kts | 248° |
| 2026-04-22 17:18 | 11.94768 | 121.85780 | 2162 ft | 219 kts | 248° |
| 2026-04-22 17:18 | 11.94245 | 121.84372 | 2175 ft | 205 kts | 250° |
| 2026-04-22 17:18 | 11.93794 | 121.83014 | 2177 ft | 200 kts | 252° |
| 2026-04-22 17:18 | 11.93389 | 121.81676 | 2181 ft | 197 kts | 253° |
| 2026-04-22 17:19 | 11.91864 | 121.79603 | 2184 ft | 173 kts | 197° |
| 2026-04-22 17:19 | 11.89774 | 121.79671 | 2183 ft | 143 kts | 145° |
| 2026-04-22 17:20 | 11.88563 | 121.81117 | 2190 ft | 133 kts | 111° |
| 2026-04-22 17:20 | 11.87795 | 121.82839 | 2186 ft | 133 kts | 110° |
| 2026-04-22 17:21 | 11.87467 | 121.83715 | 2183 ft | 131 kts | 101° |
| 2026-04-22 17:21 | 11.87533 | 121.85510 | 1755 ft | 129 kts | 70° |
| 2026-04-22 17:22 | 11.88323 | 121.87154 | 1554 ft | 131 kts | 64° |
| 2026-04-22 17:22 | 11.88739 | 121.87984 | 1476 ft | 131 kts | 64° |
| 2026-04-22 17:22 | 11.89592 | 121.89647 | 1278 ft | 134 kts | 62° |
| 2026-04-22 17:23 | 11.90006 | 121.90499 | 1011 ft | 133 kts | 65° |
| 2026-04-22 17:23 | 11.90800 | 121.92209 | 540 ft | 133 kts | 62° |
| 2026-04-22 17:23 | 11.91253 | 121.93053 | 496 ft | 139 kts | 58° |
| 2026-04-22 17:24 | 11.91709 | 121.93914 | 320 ft | 138 kts | 62° |
| 2026-04-22 17:24 | 11.92145 | 121.94787 | 120 ft | 138 kts | 62° |
| 2026-04-22 17:24 | 11.92581 | 121.95630 | 28 ft | 124 kts | 63° |
| 2026-04-22 17:24 | 11.92801 | 121.96085 | 26 ft | 18 kts | 63° |
| 2026-04-22 17:25 | 11.92753 | 121.96145 | 27 ft | 11 kts | 158° |
| 2026-04-22 17:25 | 11.92689 | 121.96180 | 26 ft | 10 kts | 152° |
| 2026-04-22 17:25 | 11.92652 | 121.96221 | 26 ft | 7 kts | 88° |
| 2026-04-22 17:25 | 11.92638 | 121.96259 | 26 ft | 5 kts | 146° |
| 2026-04-22 17:26 | 11.92624 | 121.96267 | 26 ft | 1 kts | 149° |
| 2026-04-22 17:26 | 11.92622 | 121.96268 | 26 ft | 0 kts | 149° |